Antelope Valley, Nevada Weather observations

Data are for 10 minute period ending at time listed.
 Day   Time   Solar   Ave.   Ave.  Ave.  Vector  Max.   Baro.   Total    
  of    of     Rad.   Air    Rel.  Wind   Wind   Wind  Press.  Precip.   
Year   Day            Temp.  Hum.  Speed  Dir.   Gust                    
2020   (PST)  Kw/m2    F      %     mph   deg.    mph    mb.     in.     
-------------------------------------------------------------------------
 268    0:00   -0.00   45.7    55    4.5   180     6.2   853.1    0.00 
 268    0:10   -0.00   48.1    47    6.0   186     8.3   853.1    0.00 
 268    0:20   -0.00   48.6    48    5.6   203     6.5   853.1    0.00 
 268    0:30   -0.00   46.9    53    5.8   212     7.2   853.2    0.00 
 268    0:40   -0.00   47.5    50    6.3   217     7.7   853.2    0.00 
 268    0:50   -0.00   45.7    58    5.6   210     6.7   853.3    0.00 
 268    1:00   -0.00   43.5    65    3.5   213     5.7   853.4    0.00 
 268    1:10   -0.00   41.9    70    2.1   208     3.5   853.4    0.00 
 268    1:20   -0.00   41.4    69    2.6   189     3.8   853.3    0.00 
 268    1:30   -0.00   41.9    64    3.5   183     5.4   853.1    0.00 
 268    1:40   -0.00   43.6    59    3.0   195     4.1   853.2    0.00 
 268    1:50   -0.00   43.2    61    3.1   188     4.8   853.1    0.00 
 268    2:00   -0.00   43.1    59    2.2   198     3.8   853.1    0.00 
 268    2:10   -0.00   42.9    62    0.0   195     1.1   853.1    0.00 
 268    2:20   -0.00   42.6    60    0.0     0     0.0   853.1    0.00 
 268    2:30   -0.00   43.3    57    0.8   189     2.4   853.1    0.00 
 268    2:40   -0.00   43.5    57    2.1   168     3.2   853.1    0.00 
 268    2:50   -0.00   43.4    59    3.7   188     5.0   853.1    0.00 
 268    3:00   -0.00   42.4    64    4.8   195     5.6   853.1    0.00 
 268    3:10   -0.00   40.7    70    4.7   195     5.3   853.1    0.00 
 268    3:20   -0.00   39.4    74    4.9   191     5.8   853.0    0.00 
 268    3:30   -0.00   39.0    75    5.3   198     6.2   853.0    0.00 
 268    3:40   -0.00   39.5    72    5.7   200     6.7   853.0    0.00 
 268    3:50   -0.00   41.0    66    5.5   212     7.3   852.9    0.00 
 268    4:00   -0.00   39.8    71    5.2   200     6.7   852.9    0.00 
 268    4:10   -0.00   39.6    70    5.5   204     6.4   852.8    0.00 
 268    4:20   -0.00   39.6    69    5.5   200     7.6   852.8    0.00 
 268    4:30   -0.00   38.3    76    4.2   189     5.8   852.8    0.00 
 268    4:40   -0.00   37.9    76    3.8   202     5.3   852.8    0.00 
 268    4:50   -0.00   37.7    76    5.4   192     6.7   852.8    0.00 
 268    5:00   -0.00   39.7    69    5.2   200     6.3   852.8    0.00 
 268    5:10   -0.00   39.4    70    3.3   212     4.7   852.9    0.00 
 268    5:20   -0.00   38.9    71    4.2   222     5.2   853.0    0.00 
 268    5:30   -0.00   37.9    75    5.4   234     6.3   853.1    0.00 
 268    5:40   0.00   37.9    75    4.8   190     5.7   853.1    0.00 
 268    5:50   0.01   39.1    68    6.2   196     7.4   853.2    0.00 
 268    6:00   0.01   40.3    64    4.3   196     5.8   853.3    0.00 
 268    6:10   0.03   41.0    62    3.0   228     3.7   853.4    0.00 
 268    6:20   0.09   40.0    65    3.2   251     4.2   853.4    0.00 
 268    6:30   0.13   41.0    66    2.3   230     3.4   853.5    0.00 
 268    6:40   0.17   42.8    62    1.0   230     2.1   853.6    0.00 
 268    6:50   0.20   46.5    54    2.2   198     3.3   853.7    0.00 
 268    7:00   0.23   47.9    48    1.2   218     2.2   853.8    0.00 
 268    7:10   0.27   50.8    49    2.7   186     5.4   853.8    0.00 
 268    7:20   0.30   52.5    52    2.3   220     3.5   854.0    0.00 
 268    7:30   0.33   55.2    42    3.3   218     5.3   854.2    0.00 
 268    7:40   0.36   57.6    36    5.0   219     6.9   854.3    0.00 
 268    7:50   0.40   59.4    36    4.6   237     6.1   854.3    0.00 
 268    8:00   0.43   62.0    30    4.2   237     5.6   854.4    0.00 
 268    8:10   0.46   63.4    29    3.8   236     5.5   854.5    0.00 
 268    8:20   0.49   65.5    27    2.8   197     4.4   854.4    0.00 
 268    8:30   0.52   67.9    27    3.4   195     4.9   854.3    0.00 
 268    8:40   0.55   68.2    28    3.9   200     6.2   854.2    0.00 
 268    8:50   0.58   70.2    26    4.0   200     5.7   854.1    0.00 
 268    9:00   0.60   72.3    25    4.9   200     6.9   853.9    0.00 
 268    9:10   0.63   72.7    22    5.4   221     8.1   853.7    0.00 
 268    9:20   0.65   73.0    20    5.0   235     8.9   853.7    0.00 
 268    9:30   0.68   73.9    20    4.9   230     9.3   853.6    0.00 
 268    9:40   0.70   74.3    20    5.3   236     9.6   853.3    0.00 
 268    9:50   0.72   74.4    20    5.6   226     8.9   853.2    0.00 
 268   10:00   0.73   75.1    19    6.1   215    10.4   853.1    0.00 
 268   10:10   0.75   76.3    18    6.3   206     9.3   852.9    0.00 
 268   10:20   0.77   76.4    18    8.2   220    11.8   852.8    0.00 
 268   10:30   0.78   76.7    18    9.1   231    12.8   852.6    0.00 
 268   10:40   0.79   77.2    17   10.5   235    16.3   852.6    0.00 
 268   10:50   0.80   77.2    16   10.0   227    14.2   852.6    0.00 
 268   11:00   0.81   77.4    16   11.3   230    16.9   852.4    0.00 
 268   11:10   0.82   77.9    16   12.5   232    16.4   852.2    0.00 
 268   11:20   0.82   78.3    16   12.9   236    18.6   852.2    0.00 
 268   11:30   0.83   78.3    14   13.2   237    19.6   852.1    0.00 
 268   11:40   0.83   78.9    14   12.4   250    21.0   852.0    0.00 
 268   11:50   0.83   79.1    14   14.9   243    19.5   851.9    0.00 
 268   12:00   0.82   79.3    15   14.3   233    18.4   851.8    0.00 
 268   12:10   0.82   79.5    14   13.7   244    18.7   851.8    0.00 
 268   12:20   0.81   80.0    14   12.2   239    18.7   851.7    0.00 
 268   12:30   0.81   80.0    14   12.6   226    17.9   851.6    0.00 
 268   12:40   0.80   80.2    14   10.8   212    15.5   851.5    0.00 
 268   12:50   0.79   81.0    14   11.5   235    20.7   851.3    0.00 
 268   13:00   0.78   80.9    14   12.6   246    18.8   851.2    0.00 
 268   13:10   0.78   81.1    14   11.3   241    17.0   851.2    0.00 
 268   13:20   0.71   81.3    14   11.1   241    15.5   851.2    0.00 
 268   13:30   0.70   81.2    14    9.8   273    15.8   851.2    0.00 
 268   13:40   0.66   81.3    14   11.2   273    17.2   851.2    0.00 
 268   13:50   0.68   81.6    14   12.0   274    20.0   851.1    0.00 
 268   14:00   0.66   81.5    14   10.5   264    16.7   851.0    0.00 
 268   14:10   0.63   81.2    15   12.1   258    18.6   850.9    0.00 
 268   14:20   0.61   81.1    14   11.0   259    18.5   850.8    0.00 
 268   14:30   0.58   81.1    14    7.9   264    14.8   850.8    0.00 
 268   14:40   0.55   81.3    14    8.6   254    16.3   850.7    0.00 
 268   14:50   0.53   81.1    14    9.4   250    15.8   850.6    0.00 
 268   15:00   0.49   81.2    15    8.4   256    12.8   850.5    0.00 
 268   15:10   0.47   81.5    14    7.5   258    10.7   850.5    0.00 
 268   15:20   0.43   81.0    15    9.4   259    15.2   850.4    0.00 
 268   15:30   0.40   81.0    14    7.9   266    13.3   850.2    0.00 
 268   15:40   0.40   80.9    14    8.1   258    13.1   850.0    0.00 
 268   15:50   0.32   81.1    15    8.3   265    13.9   849.9    0.00 
 268   16:00   0.27   79.6    16    8.5   250    13.0   849.9    0.00 
 268   16:10   0.30   80.0    16    8.6   253    12.1   849.6    0.00 
 268   16:20   0.24   79.5    16    8.2   235    12.1   849.4    0.00 
 268   16:30   0.21   78.0    20    8.1   232    11.9   849.4    0.00 
 268   16:40   0.18   77.5    18    8.8   253    13.5   849.4    0.00 
 268   16:50   0.16   76.7    17    9.1   264    13.0   849.4    0.00 
 268   17:00   0.14   76.6    16    9.9   271    14.8   849.4    0.00 
 268   17:10   0.10   75.7    16   10.9   283    15.0   849.4    0.00 
 268   17:20   0.07   75.2    15   10.5   274    13.6   849.3    0.00 
 268   17:30   0.05   73.6    17    9.1   269    13.0   849.3    0.00 
 268   17:40   0.01   70.2    21    5.9   268     8.0   849.3    0.00 
 268   17:50   -0.00   67.0    23    5.3   270     6.7   849.3    0.00 
 268   18:00   -0.01   66.1    24    3.7   259     4.8   849.6    0.00 
 268   18:10   -0.01   64.1    26    2.9   191     4.2   849.7    0.00 
 268   18:20   -0.01   62.8    26    4.5   145     6.9   849.9    0.00 
 268   18:30   -0.01   60.3    28    3.7   146     6.8   850.0    0.00 
 268   18:40   -0.00   60.4    26    4.8   129     6.0   850.1    0.00 
 268   18:50   -0.00   59.8    28    5.2   131     6.2   850.2    0.00 
 268   19:00   -0.00   58.6    29    5.9   134     6.8   850.3    0.00 
 268   19:10   -0.00   56.8    31    5.3   136     6.3   850.4    0.00 
 268   19:20   -0.00   56.5    31    5.7   143     6.4   850.5    0.00 
 268   19:30   -0.00   56.6    30    6.1   152     6.8   850.5    0.00 
 268   19:40   -0.00   57.7    29    6.1   159     7.1   850.5    0.00 
 268   19:50   -0.00   57.8    28    5.9   160     7.2   850.5    0.00 
 268   20:00   -0.01   55.4    38    3.5   244     5.3   850.6    0.00 
 268   20:10   -0.00   52.2    40    3.5   269     4.3   850.8    0.00 
 268   20:20   -0.00   52.6    40    2.8   252     3.8   850.9    0.00 
 268   20:30   -0.00   52.7    38    1.2   266     3.1   851.0    0.00 
 268   20:40   -0.00   51.9    43    3.0   206     4.9   851.0    0.00 
 268   20:50   -0.00   49.4    52    3.7   182     6.7   851.0    0.00 
 268   21:00   -0.00   49.2    46    3.4   169     5.1   851.0    0.00 
 268   21:10   -0.00   50.8    44    4.1   187     5.7   850.9    0.00 
 268   21:20   -0.00   48.8    49    2.2   177     4.1   850.9    0.00 
 268   21:30   -0.00   48.4    50    1.2   274     5.2   850.9    0.00 
 268   21:40   -0.00   50.4    46    1.9   145     4.0   850.9    0.00 
 268   21:50   -0.00   52.0    38    4.0   182     6.2   850.9    0.00 
 268   22:00   -0.00   51.6    42    2.3   191     5.6   851.1    0.00 
 268   22:10   -0.00   52.1    38    3.6   205     5.5   851.1    0.00 
 268   22:20   -0.00   51.4    42    5.4   213     6.9   851.3    0.00 
 268   22:30   -0.00   49.1    49    5.7   207     7.5   851.2    0.00 
 268   22:40   -0.00   50.7    45    6.2   224     8.6   851.2    0.00 
 268   22:50   -0.00   51.9    42    6.9   202     8.6   851.3    0.00 
 268   23:00   -0.00   50.0    47    6.6   185     8.1   851.3    0.00 
 268   23:10   -0.00   50.0    45    4.7   197     6.4   851.3    0.00 

Return to Antelope Valley graphs page.


Western Regional Climate Center,wrcc@dri.edu